DAL435 PHLI-KLAX
Flight info
| Callsign | DAL435 |
|---|---|
| Flight time | N/A |
| Altitude | 33000 |
| Route | PHLI DCT LIH V15 MKK DCT EBBER R577 ETECO/N0458F350 R577 |
| Aircraft | A321/M-V/N |
Departure
| Time | 2026-05-06 15:56 |
|---|---|
| Airport | Lihue Airport (PHLI) |
Arrival
| Time | N/A |
|---|---|
| Airport | Los Angeles International Airport (KLAX) |
| Time | Latitude | Longitude | Altitude | Speed | Heading |
|---|---|---|---|---|---|
| 2026-05-06 15:45 | 21.97883 | -159.34710 | 153 ft | 0 kts | 314° |
| 2026-05-06 15:48 | 21.97878 | -159.34704 | 153 ft | 4 kts | 313° |
| 2026-05-06 15:49 | 21.97860 | -159.34684 | 153 ft | 4 kts | 303° |
| 2026-05-06 15:49 | 21.97852 | -159.34659 | 153 ft | 4 kts | 261° |
| 2026-05-06 15:49 | 21.97859 | -159.34640 | 153 ft | 0 kts | 226° |
| 2026-05-06 15:52 | 21.97858 | -159.34640 | 153 ft | 1 kts | 226° |
| 2026-05-06 15:52 | 21.97836 | -159.34665 | 153 ft | 9 kts | 225° |
| 2026-05-06 15:52 | 21.97768 | -159.34646 | 149 ft | 14 kts | 137° |
| 2026-05-06 15:53 | 21.97764 | -159.34546 | 140 ft | 17 kts | 49° |
| 2026-05-06 15:53 | 21.97856 | -159.34447 | 133 ft | 20 kts | 44° |
| 2026-05-06 15:53 | 21.97960 | -159.34335 | 122 ft | 22 kts | 45° |
| 2026-05-06 15:53 | 21.98070 | -159.34218 | 120 ft | 23 kts | 45° |
| 2026-05-06 15:54 | 21.98186 | -159.34094 | 115 ft | 24 kts | 45° |
| 2026-05-06 15:54 | 21.98303 | -159.33968 | 110 ft | 24 kts | 45° |
| 2026-05-06 15:54 | 21.98428 | -159.33832 | 103 ft | 27 kts | 45° |
| 2026-05-06 15:54 | 21.98566 | -159.33686 | 90 ft | 26 kts | 44° |
| 2026-05-06 15:55 | 21.98590 | -159.33581 | 82 ft | 16 kts | 125° |
| 2026-05-06 15:55 | 21.98509 | -159.33579 | 87 ft | 9 kts | 223° |
| 2026-05-06 15:55 | 21.98477 | -159.33616 | 94 ft | 11 kts | 227° |
| 2026-05-06 15:55 | 21.98241 | -159.33873 | 110 ft | 86 kts | 223° |
| 2026-05-06 15:56 | 21.97656 | -159.34497 | 145 ft | 147 kts | 225° |
| 2026-05-06 15:56 | 21.96919 | -159.35287 | 817 ft | 145 kts | 225° |
| 2026-05-06 15:56 | 21.96189 | -159.36028 | 1564 ft | 142 kts | 211° |
| 2026-05-06 15:56 | 21.95207 | -159.36174 | 2053 ft | 162 kts | 161° |
| 2026-05-06 15:57 | 21.94280 | -159.35364 | 2345 ft | 182 kts | 129° |
| 2026-05-06 15:57 | 21.93631 | -159.34132 | 2453 ft | 198 kts | 117° |
| 2026-05-06 15:57 | 21.92977 | -159.32777 | 2590 ft | 211 kts | 117° |
| 2026-05-06 15:57 | 21.92269 | -159.31320 | 2725 ft | 228 kts | 117° |
| 2026-05-06 15:58 | 21.91509 | -159.29751 | 2822 ft | 251 kts | 117° |
| 2026-05-06 15:58 | 21.90675 | -159.28023 | 3158 ft | 267 kts | 116° |
| 2026-05-06 15:58 | 21.89814 | -159.26234 | 3778 ft | 271 kts | 117° |
| 2026-05-06 15:58 | 21.88939 | -159.24421 | 4408 ft | 275 kts | 117° |
| 2026-05-06 15:59 | 21.88050 | -159.22581 | 5040 ft | 279 kts | 118° |
| 2026-05-06 15:59 | 21.87152 | -159.20719 | 5665 ft | 282 kts | 118° |
| 2026-05-06 15:59 | 21.86244 | -159.18834 | 6278 ft | 285 kts | 118° |
| 2026-05-06 15:59 | 21.85327 | -159.16929 | 6894 ft | 288 kts | 119° |
| 2026-05-06 16:00 | 21.84396 | -159.15001 | 7495 ft | 292 kts | 119° |
| 2026-05-06 16:00 | 21.83458 | -159.13053 | 8087 ft | 294 kts | 118° |
| 2026-05-06 16:00 | 21.82511 | -159.11085 | 8638 ft | 296 kts | 118° |
| 2026-05-06 16:00 | 21.81560 | -159.09109 | 9135 ft | 300 kts | 119° |
| 2026-05-06 16:01 | 21.80593 | -159.07118 | 9647 ft | 301 kts | 119° |
| 2026-05-06 16:01 | 21.79610 | -159.05107 | 10130 ft | 306 kts | 119° |
| 2026-05-06 16:01 | 21.78606 | -159.03034 | 10320 ft | 321 kts | 119° |
| 2026-05-06 16:01 | 21.77550 | -159.00849 | 10455 ft | 337 kts | 118° |
| 2026-05-06 16:02 | 21.76447 | -158.98568 | 10590 ft | 352 kts | 119° |
| 2026-05-06 16:02 | 21.75290 | -158.96187 | 10713 ft | 366 kts | 119° |
| 2026-05-06 16:02 | 21.74055 | -158.93733 | 10834 ft | 380 kts | 121° |
| 2026-05-06 16:02 | 21.72694 | -158.91244 | 11000 ft | 392 kts | 123° |
| 2026-05-06 16:03 | 21.71256 | -158.88736 | 11366 ft | 396 kts | 123° |
| 2026-05-06 16:03 | 21.69789 | -158.86217 | 11797 ft | 399 kts | 124° |
| 2026-05-06 16:03 | 21.68316 | -158.83683 | 12228 ft | 402 kts | 123° |
| 2026-05-06 16:03 | 21.66843 | -158.81126 | 12651 ft | 404 kts | 123° |
| 2026-05-06 16:04 | 21.65367 | -158.78540 | 13058 ft | 407 kts | 123° |
| 2026-05-06 16:04 | 21.63892 | -158.75935 | 13472 ft | 409 kts | 123° |
| 2026-05-06 16:04 | 21.62429 | -158.73348 | 13852 ft | 412 kts | 122° |
| 2026-05-06 16:04 | 21.60937 | -158.70713 | 14273 ft | 415 kts | 122° |
| 2026-05-06 16:05 | 21.59431 | -158.68055 | 14660 ft | 416 kts | 123° |
| 2026-05-06 16:05 | 21.57918 | -158.65381 | 15058 ft | 419 kts | 122° |
| 2026-05-06 16:05 | 21.56397 | -158.62700 | 15427 ft | 421 kts | 122° |
| 2026-05-06 16:05 | 21.54866 | -158.60008 | 15784 ft | 423 kts | 122° |
| 2026-05-06 16:06 | 21.53323 | -158.57302 | 16130 ft | 426 kts | 122° |
| 2026-05-06 16:06 | 21.51776 | -158.54586 | 16479 ft | 428 kts | 122° |
| 2026-05-06 16:06 | 21.50218 | -158.51847 | 16821 ft | 431 kts | 122° |
| 2026-05-06 16:06 | 21.48653 | -158.49099 | 17164 ft | 433 kts | 122° |
| 2026-05-06 16:07 | 21.47076 | -158.46330 | 17491 ft | 435 kts | 122° |
| 2026-05-06 16:07 | 21.45495 | -158.43557 | 17822 ft | 437 kts | 122° |
| 2026-05-06 16:07 | 21.43902 | -158.40762 | 18155 ft | 439 kts | 122° |
| 2026-05-06 16:07 | 21.42326 | -158.37999 | 18471 ft | 441 kts | 122° |
| 2026-05-06 16:08 | 21.40698 | -158.35148 | 18780 ft | 443 kts | 122° |
| 2026-05-06 16:08 | 21.39103 | -158.32358 | 19082 ft | 445 kts | 122° |
| 2026-05-06 16:08 | 21.37483 | -158.29525 | 19374 ft | 447 kts | 122° |
| 2026-05-06 16:08 | 21.35854 | -158.26675 | 19666 ft | 449 kts | 122° |
| 2026-05-06 16:09 | 21.34220 | -158.23815 | 19977 ft | 451 kts | 122° |
| 2026-05-06 16:09 | 21.32622 | -158.20914 | 20267 ft | 453 kts | 117° |
| 2026-05-06 16:09 | 21.31413 | -158.17793 | 20548 ft | 455 kts | 107° |
| 2026-05-06 16:09 | 21.30707 | -158.14483 | 20804 ft | 457 kts | 97° |
| 2026-05-06 16:10 | 21.30523 | -158.11084 | 21091 ft | 458 kts | 88° |
| 2026-05-06 16:10 | 21.30590 | -158.07668 | 21371 ft | 459 kts | 88° |
| 2026-05-06 16:10 | 21.30652 | -158.04243 | 21636 ft | 461 kts | 88° |
| 2026-05-06 16:10 | 21.30710 | -158.00806 | 21896 ft | 462 kts | 88° |
| 2026-05-06 16:11 | 21.30767 | -157.97351 | 22157 ft | 463 kts | 88° |
| 2026-05-06 16:11 | 21.30770 | -157.93890 | 22398 ft | 465 kts | 93° |
| 2026-05-06 16:11 | 21.30350 | -157.90445 | 22637 ft | 468 kts | 101° |
| 2026-05-06 16:11 | 21.29691 | -157.87021 | 22880 ft | 469 kts | 101° |
| 2026-05-06 16:12 | 21.29034 | -157.83596 | 23123 ft | 471 kts | 101° |
| 2026-05-06 16:12 | 21.28377 | -157.80150 | 23357 ft | 472 kts | 101° |
| 2026-05-06 16:12 | 21.27722 | -157.76695 | 23573 ft | 474 kts | 101° |
| 2026-05-06 16:12 | 21.27064 | -157.73226 | 23783 ft | 476 kts | 101° |
| 2026-05-06 16:13 | 21.26398 | -157.69751 | 24009 ft | 477 kts | 101° |
| 2026-05-06 16:13 | 21.25649 | -157.66283 | 24219 ft | 479 kts | 103° |
| 2026-05-06 16:13 | 21.24810 | -157.62818 | 24434 ft | 480 kts | 104° |
| 2026-05-06 16:13 | 21.23915 | -157.59364 | 24614 ft | 482 kts | 105° |
| 2026-05-06 16:14 | 21.23000 | -157.55909 | 24808 ft | 484 kts | 105° |
| 2026-05-06 16:14 | 21.22087 | -157.52430 | 25002 ft | 485 kts | 105° |
| 2026-05-06 16:14 | 21.21192 | -157.48945 | 25194 ft | 487 kts | 104° |
| 2026-05-06 16:14 | 21.20312 | -157.45432 | 25387 ft | 488 kts | 104° |
| 2026-05-06 16:15 | 21.19443 | -157.41911 | 25590 ft | 490 kts | 104° |
| 2026-05-06 16:15 | 21.18604 | -157.38367 | 25793 ft | 491 kts | 103° |
| 2026-05-06 16:15 | 21.17806 | -157.34806 | 25979 ft | 493 kts | 102° |
| 2026-05-06 16:15 | 21.17037 | -157.31268 | 26181 ft | 494 kts | 102° |
| 2026-05-06 16:16 | 21.16259 | -157.27678 | 26364 ft | 496 kts | 102° |
| 2026-05-06 16:16 | 21.15471 | -157.24076 | 26586 ft | 496 kts | 103° |
| 2026-05-06 16:16 | 21.14700 | -157.20480 | 26874 ft | 495 kts | 99° |
| 2026-05-06 16:16 | 21.14300 | -157.16821 | 27144 ft | 494 kts | 91° |
| 2026-05-06 16:17 | 21.14401 | -157.13152 | 27394 ft | 493 kts | 82° |
| 2026-05-06 16:17 | 21.14925 | -157.09525 | 27636 ft | 492 kts | 79° |
| 2026-05-06 16:17 | 21.15495 | -157.05908 | 27894 ft | 492 kts | 79° |
| 2026-05-06 16:17 | 21.16058 | -157.02293 | 28158 ft | 492 kts | 79° |
| 2026-05-06 16:18 | 21.16617 | -156.98677 | 28413 ft | 492 kts | 79° |
| 2026-05-06 16:18 | 21.17177 | -156.95067 | 28705 ft | 492 kts | 79° |
| 2026-05-06 16:18 | 21.17738 | -156.91448 | 28943 ft | 491 kts | 79° |
| 2026-05-06 16:18 | 21.18295 | -156.87836 | 29195 ft | 491 kts | 79° |
| 2026-05-06 16:19 | 21.18849 | -156.84227 | 29443 ft | 491 kts | 79° |
| 2026-05-06 16:19 | 21.19400 | -156.80623 | 29688 ft | 490 kts | 79° |
| 2026-05-06 16:19 | 21.19950 | -156.77017 | 29928 ft | 490 kts | 79° |
| 2026-05-06 16:19 | 21.20498 | -156.73417 | 30155 ft | 489 kts | 79° |
| 2026-05-06 16:20 | 21.21039 | -156.69863 | 30379 ft | 489 kts | 79° |
| 2026-05-06 16:20 | 21.21590 | -156.66266 | 30589 ft | 490 kts | 79° |
| 2026-05-06 16:20 | 21.22143 | -156.62664 | 30809 ft | 490 kts | 79° |
| 2026-05-06 16:20 | 21.22694 | -156.59065 | 31015 ft | 490 kts | 79° |
| 2026-05-06 16:21 | 21.23246 | -156.55461 | 31234 ft | 490 kts | 79° |
| 2026-05-06 16:21 | 21.23792 | -156.51854 | 31443 ft | 490 kts | 79° |
| 2026-05-06 16:21 | 21.24337 | -156.48249 | 31647 ft | 490 kts | 79° |
| 2026-05-06 16:21 | 21.24882 | -156.44641 | 31867 ft | 490 kts | 79° |
| 2026-05-06 16:22 | 21.25423 | -156.41035 | 32062 ft | 490 kts | 79° |
| 2026-05-06 16:22 | 21.25783 | -156.38645 | 32193 ft | 490 kts | 79° |
| 2026-05-06 16:22 | 21.26326 | -156.35031 | 32393 ft | 491 kts | 79° |
| 2026-05-06 16:22 | 21.26865 | -156.31423 | 32587 ft | 491 kts | 79° |
| 2026-05-06 16:23 | 21.27404 | -156.27803 | 32776 ft | 491 kts | 79° |
| 2026-05-06 16:23 | 21.27946 | -156.24188 | 32968 ft | 491 kts | 79° |
| 2026-05-06 16:23 | 21.29035 | -156.16969 | 33064 ft | 490 kts | 79° |
| 2026-05-06 16:24 | 21.30113 | -156.09757 | 33062 ft | 490 kts | 79° |
| 2026-05-06 16:24 | 21.31183 | -156.02555 | 33064 ft | 489 kts | 79° |
| 2026-05-06 16:25 | 21.32246 | -155.95356 | 33087 ft | 489 kts | 79° |
| 2026-05-06 16:25 | 21.33309 | -155.88144 | 33096 ft | 490 kts | 79° |
| 2026-05-06 16:26 | 21.34374 | -155.80934 | 33098 ft | 489 kts | 79° |
| 2026-05-06 16:26 | 21.35434 | -155.73770 | 33098 ft | 489 kts | 79° |
| 2026-05-06 16:27 | 21.36491 | -155.66556 | 33098 ft | 489 kts | 79° |
| 2026-05-06 16:27 | 21.37537 | -155.59344 | 33102 ft | 489 kts | 80° |
| 2026-05-06 16:28 | 21.38586 | -155.52128 | 33106 ft | 490 kts | 79° |
| 2026-05-06 16:28 | 21.39635 | -155.44905 | 33092 ft | 490 kts | 80° |
| 2026-05-06 16:29 | 21.40684 | -155.37676 | 33078 ft | 490 kts | 80° |
| 2026-05-06 16:29 | 21.41725 | -155.30451 | 33064 ft | 490 kts | 80° |
| 2026-05-06 16:30 | 21.42592 | -155.24445 | 33058 ft | 490 kts | 80° |
| 2026-05-06 16:30 | 21.43796 | -155.16039 | 33054 ft | 491 kts | 80° |
| 2026-05-06 16:31 | 21.44830 | -155.08793 | 33051 ft | 491 kts | 80° |
| 2026-05-06 16:31 | 21.45859 | -155.01535 | 33051 ft | 492 kts | 80° |
| 2026-05-06 16:32 | 21.46887 | -154.94278 | 33055 ft | 492 kts | 80° |
| 2026-05-06 16:32 | 21.47921 | -154.87013 | 33056 ft | 492 kts | 80° |
| 2026-05-06 16:33 | 21.48952 | -154.79744 | 33063 ft | 492 kts | 80° |
| 2026-05-06 16:34 | 21.50486 | -154.68826 | 33071 ft | 493 kts | 80° |
| 2026-05-06 16:34 | 21.51498 | -154.61601 | 33075 ft | 493 kts | 80° |
| 2026-05-06 16:35 | 21.52505 | -154.54333 | 33073 ft | 492 kts | 80° |
| 2026-05-06 16:35 | 21.53515 | -154.47053 | 33068 ft | 492 kts | 80° |
| 2026-05-06 16:36 | 21.54525 | -154.39782 | 33071 ft | 492 kts | 80° |
| 2026-05-06 16:36 | 21.55536 | -154.32520 | 33071 ft | 492 kts | 80° |
| 2026-05-06 16:37 | 21.56530 | -154.25255 | 33069 ft | 491 kts | 81° |
| 2026-05-06 16:37 | 21.57521 | -154.17991 | 33068 ft | 491 kts | 81° |
| 2026-05-06 16:38 | 21.58514 | -154.10732 | 33068 ft | 491 kts | 81° |
| 2026-05-06 16:38 | 21.59507 | -154.03465 | 33068 ft | 491 kts | 80° |
| 2026-05-06 16:39 | 21.60509 | -153.96207 | 33066 ft | 491 kts | 81° |
| 2026-05-06 16:39 | 21.61479 | -153.88984 | 33066 ft | 492 kts | 81° |
| 2026-05-06 16:40 | 21.62461 | -153.81712 | 33067 ft | 492 kts | 81° |
| 2026-05-06 16:40 | 21.63435 | -153.74436 | 33067 ft | 492 kts | 81° |
| 2026-05-06 16:41 | 21.64409 | -153.67167 | 33067 ft | 491 kts | 81° |
| 2026-05-06 16:41 | 21.65380 | -153.59899 | 33066 ft | 491 kts | 81° |
| 2026-05-06 16:42 | 21.66344 | -153.52628 | 33062 ft | 492 kts | 81° |
| 2026-05-06 16:42 | 21.67300 | -153.45350 | 33059 ft | 492 kts | 81° |
| 2026-05-06 16:43 | 21.68264 | -153.38067 | 33059 ft | 492 kts | 81° |
| 2026-05-06 16:43 | 21.69235 | -153.30781 | 33055 ft | 492 kts | 81° |
| 2026-05-06 16:44 | 21.70203 | -153.23485 | 33053 ft | 493 kts | 81° |
| 2026-05-06 16:44 | 21.71330 | -153.16233 | 33049 ft | 491 kts | 72° |
| 2026-05-06 16:45 | 21.73963 | -153.09520 | 33047 ft | 486 kts | 59° |
| 2026-05-06 16:45 | 21.77189 | -153.03166 | 33047 ft | 487 kts | 59° |
| 2026-05-06 16:46 | 21.80427 | -152.96753 | 33041 ft | 488 kts | 59° |
| 2026-05-06 16:46 | 21.83661 | -152.90321 | 33052 ft | 489 kts | 59° |
| 2026-05-06 16:47 | 21.86899 | -152.83887 | 33057 ft | 489 kts | 59° |
| 2026-05-06 16:47 | 21.90136 | -152.77440 | 33058 ft | 490 kts | 59° |
| 2026-05-06 16:48 | 21.93386 | -152.70993 | 33062 ft | 490 kts | 59° |
| 2026-05-06 16:48 | 21.96633 | -152.64531 | 33067 ft | 490 kts | 59° |
| 2026-05-06 16:49 | 21.99847 | -152.58112 | 33070 ft | 490 kts | 59° |
| 2026-05-06 16:49 | 22.03068 | -152.51637 | 33075 ft | 490 kts | 59° |
| 2026-05-06 16:50 | 22.06296 | -152.45178 | 33079 ft | 489 kts | 59° |
| 2026-05-06 16:50 | 22.09516 | -152.38725 | 33076 ft | 489 kts | 59° |
| 2026-05-06 16:51 | 22.12727 | -152.32270 | 33072 ft | 488 kts | 59° |
| 2026-05-06 16:51 | 22.15934 | -152.25820 | 33066 ft | 488 kts | 59° |
| 2026-05-06 16:52 | 22.19147 | -152.19365 | 33064 ft | 488 kts | 59° |
| 2026-05-06 16:52 | 22.22361 | -152.12906 | 33063 ft | 489 kts | 59° |
| 2026-05-06 16:53 | 22.25572 | -152.06431 | 33069 ft | 489 kts | 59° |
| 2026-05-06 16:53 | 22.28756 | -151.99991 | 33068 ft | 489 kts | 59° |
| 2026-05-06 16:54 | 22.31956 | -151.93505 | 33070 ft | 489 kts | 59° |
| 2026-05-06 16:54 | 22.35165 | -151.87026 | 33073 ft | 489 kts | 59° |
| 2026-05-06 16:55 | 22.38354 | -151.80531 | 33068 ft | 489 kts | 60° |
| 2026-05-06 16:55 | 22.41520 | -151.74021 | 33074 ft | 489 kts | 60° |
| 2026-05-06 16:56 | 22.44689 | -151.67526 | 33077 ft | 489 kts | 59° |
| 2026-05-06 16:56 | 22.47870 | -151.61031 | 33079 ft | 489 kts | 59° |
| 2026-05-06 16:57 | 22.51050 | -151.54536 | 33080 ft | 488 kts | 59° |
| 2026-05-06 16:57 | 22.54220 | -151.48046 | 33080 ft | 488 kts | 60° |
| 2026-05-06 16:58 | 22.57385 | -151.41543 | 33076 ft | 488 kts | 60° |
| 2026-05-06 16:58 | 22.60543 | -151.35032 | 33076 ft | 489 kts | 60° |
| 2026-05-06 16:59 | 22.63705 | -151.28525 | 33079 ft | 488 kts | 60° |
| 2026-05-06 16:59 | 22.66857 | -151.22010 | 33082 ft | 489 kts | 60° |
| 2026-05-06 17:00 | 22.70009 | -151.15496 | 33082 ft | 488 kts | 60° |
| 2026-05-06 17:00 | 22.73146 | -151.09022 | 33082 ft | 489 kts | 60° |
| 2026-05-06 17:01 | 22.76297 | -151.02503 | 33079 ft | 488 kts | 60° |
| 2026-05-06 17:01 | 22.79445 | -150.95984 | 33078 ft | 488 kts | 60° |
| 2026-05-06 17:02 | 22.82583 | -150.89469 | 33079 ft | 488 kts | 60° |
| 2026-05-06 17:02 | 22.85713 | -150.82948 | 33078 ft | 487 kts | 60° |
| 2026-05-06 17:03 | 22.88844 | -150.76426 | 33078 ft | 488 kts | 60° |
| 2026-05-06 17:03 | 22.91972 | -150.69896 | 33080 ft | 488 kts | 60° |
| 2026-05-06 17:04 | 22.95097 | -150.63362 | 33083 ft | 488 kts | 60° |
| 2026-05-06 17:04 | 22.98214 | -150.56835 | 33086 ft | 487 kts | 60° |
| 2026-05-06 17:05 | 23.01332 | -150.50307 | 33086 ft | 486 kts | 60° |
| 2026-05-06 17:05 | 23.04448 | -150.43794 | 33082 ft | 486 kts | 60° |
| 2026-05-06 17:06 | 23.07565 | -150.37266 | 33085 ft | 486 kts | 60° |
| 2026-05-06 17:06 | 23.10665 | -150.30752 | 33082 ft | 485 kts | 60° |
| 2026-05-06 17:07 | 23.13761 | -150.24240 | 33081 ft | 485 kts | 60° |
| 2026-05-06 17:07 | 23.16831 | -150.17766 | 33081 ft | 485 kts | 60° |
| 2026-05-06 17:08 | 23.19914 | -150.11250 | 33084 ft | 485 kts | 60° |
| 2026-05-06 17:08 | 23.22992 | -150.04738 | 33084 ft | 484 kts | 60° |
| 2026-05-06 17:09 | 23.26067 | -149.98236 | 33086 ft | 484 kts | 60° |
| 2026-05-06 17:09 | 23.29148 | -149.91735 | 33079 ft | 483 kts | 60° |
| 2026-05-06 17:10 | 23.32216 | -149.85228 | 33082 ft | 483 kts | 60° |
| 2026-05-06 17:10 | 23.35274 | -149.78729 | 33085 ft | 482 kts | 60° |
| 2026-05-06 17:11 | 23.38327 | -149.72227 | 33088 ft | 482 kts | 61° |
| 2026-05-06 17:11 | 23.41385 | -149.65720 | 33095 ft | 483 kts | 61° |
| 2026-05-06 17:12 | 23.44444 | -149.59222 | 33096 ft | 483 kts | 60° |
| 2026-05-06 17:12 | 23.47499 | -149.52712 | 33101 ft | 483 kts | 61° |
| 2026-05-06 17:13 | 23.50541 | -149.46193 | 33104 ft | 483 kts | 61° |
| 2026-05-06 17:13 | 23.53563 | -149.39707 | 33107 ft | 483 kts | 61° |
| 2026-05-06 17:14 | 23.56607 | -149.33187 | 33105 ft | 483 kts | 61° |
| 2026-05-06 17:14 | 23.59649 | -149.26651 | 33104 ft | 483 kts | 61° |
| 2026-05-06 17:15 | 23.62689 | -149.20113 | 33102 ft | 483 kts | 61° |
| 2026-05-06 17:15 | 23.65730 | -149.13573 | 33101 ft | 483 kts | 61° |
| 2026-05-06 17:16 | 23.68760 | -149.07035 | 33095 ft | 484 kts | 61° |
| 2026-05-06 17:16 | 23.71796 | -149.00485 | 33093 ft | 484 kts | 61° |
| 2026-05-06 17:17 | 23.74833 | -148.93927 | 33094 ft | 484 kts | 61° |
| 2026-05-06 17:17 | 23.77867 | -148.87364 | 33093 ft | 484 kts | 61° |
| 2026-05-06 17:18 | 23.80895 | -148.80795 | 33090 ft | 484 kts | 61° |
| 2026-05-06 17:18 | 23.83413 | -148.75339 | 33088 ft | 484 kts | 61° |
| 2026-05-06 17:19 | 23.86934 | -148.67696 | 33089 ft | 485 kts | 61° |
| 2026-05-06 17:19 | 23.89960 | -148.61109 | 33096 ft | 485 kts | 61° |
| 2026-05-06 17:20 | 23.92495 | -148.55578 | 33099 ft | 485 kts | 61° |
| 2026-05-06 17:20 | 23.95516 | -148.48975 | 33102 ft | 486 kts | 61° |
| 2026-05-06 17:21 | 23.98513 | -148.42420 | 33101 ft | 485 kts | 61° |
| 2026-05-06 17:21 | 24.01531 | -148.35828 | 33098 ft | 485 kts | 61° |
| 2026-05-06 17:22 | 24.04544 | -148.29236 | 33096 ft | 484 kts | 61° |
| 2026-05-06 17:22 | 24.07546 | -148.22638 | 33094 ft | 484 kts | 61° |
| 2026-05-06 17:23 | 24.10554 | -148.16044 | 33094 ft | 484 kts | 61° |
| 2026-05-06 17:23 | 24.13551 | -148.09439 | 33095 ft | 484 kts | 61° |
| 2026-05-06 17:24 | 24.16546 | -148.02834 | 33094 ft | 484 kts | 61° |
| 2026-05-06 17:24 | 24.19523 | -147.96267 | 33094 ft | 484 kts | 61° |
| 2026-05-06 17:25 | 24.22512 | -147.89659 | 33094 ft | 484 kts | 61° |
| 2026-05-06 17:25 | 24.25495 | -147.83049 | 33093 ft | 485 kts | 61° |
| 2026-05-06 17:26 | 24.28487 | -147.76435 | 33094 ft | 484 kts | 61° |
| 2026-05-06 17:26 | 24.31480 | -147.69814 | 33093 ft | 485 kts | 62° |
| 2026-05-06 17:27 | 24.34457 | -147.63190 | 33100 ft | 484 kts | 62° |
| 2026-05-06 17:27 | 24.37434 | -147.56563 | 33097 ft | 484 kts | 62° |
| 2026-05-06 17:28 | 24.40399 | -147.49927 | 33105 ft | 485 kts | 62° |
| 2026-05-06 17:28 | 24.43371 | -147.43283 | 33110 ft | 484 kts | 62° |
| 2026-05-06 17:29 | 24.46337 | -147.36653 | 33112 ft | 484 kts | 62° |
| 2026-05-06 17:29 | 24.49309 | -147.30010 | 33106 ft | 484 kts | 62° |
| 2026-05-06 17:30 | 24.52271 | -147.23372 | 33110 ft | 484 kts | 62° |
| 2026-05-06 17:30 | 24.55213 | -147.16775 | 33112 ft | 484 kts | 62° |
| 2026-05-06 17:31 | 24.58167 | -147.10131 | 33112 ft | 484 kts | 62° |
| 2026-05-06 17:31 | 24.61121 | -147.03470 | 33112 ft | 484 kts | 62° |
| 2026-05-06 17:32 | 24.64070 | -146.96814 | 33111 ft | 485 kts | 62° |
| 2026-05-06 17:32 | 24.67020 | -146.90149 | 33112 ft | 484 kts | 62° |
| 2026-05-06 17:33 | 24.69951 | -146.83533 | 33111 ft | 485 kts | 62° |
| 2026-05-06 17:33 | 24.72898 | -146.76869 | 33113 ft | 484 kts | 62° |
| 2026-05-06 17:34 | 24.75831 | -146.70197 | 33110 ft | 485 kts | 62° |
| 2026-05-06 17:34 | 24.78770 | -146.63534 | 33103 ft | 484 kts | 62° |
| 2026-05-06 17:35 | 24.81704 | -146.56862 | 33103 ft | 484 kts | 62° |
| 2026-05-06 17:35 | 24.84629 | -146.50187 | 33105 ft | 484 kts | 62° |
| 2026-05-06 17:36 | 24.89021 | -146.40174 | 33108 ft | 484 kts | 62° |
| 2026-05-06 17:36 | 24.91945 | -146.33487 | 33109 ft | 484 kts | 62° |
| 2026-05-06 17:37 | 24.94868 | -146.26804 | 33111 ft | 484 kts | 62° |
| 2026-05-06 17:37 | 24.97784 | -146.20116 | 33112 ft | 484 kts | 62° |
| 2026-05-06 17:38 | 25.00696 | -146.13424 | 33113 ft | 484 kts | 62° |
| 2026-05-06 17:38 | 25.03580 | -146.06777 | 33112 ft | 484 kts | 62° |
| 2026-05-06 17:39 | 25.06485 | -146.00077 | 33115 ft | 484 kts | 62° |
| 2026-05-06 17:39 | 25.09393 | -145.93372 | 33116 ft | 484 kts | 63° |
| 2026-05-06 17:40 | 25.12290 | -145.86675 | 33111 ft | 483 kts | 63° |
| 2026-05-06 17:40 | 25.15177 | -145.79986 | 33111 ft | 483 kts | 63° |
| 2026-05-06 17:41 | 25.18067 | -145.73285 | 33110 ft | 483 kts | 63° |
| 2026-05-06 17:41 | 25.20953 | -145.66588 | 33109 ft | 483 kts | 63° |
| 2026-05-06 17:42 | 25.23828 | -145.59889 | 33112 ft | 483 kts | 63° |
| 2026-05-06 17:42 | 25.26716 | -145.53179 | 33113 ft | 483 kts | 63° |
| 2026-05-06 17:43 | 25.29593 | -145.46477 | 33114 ft | 483 kts | 63° |
| 2026-05-06 17:43 | 25.32442 | -145.39807 | 33113 ft | 483 kts | 63° |
| 2026-05-06 17:44 | 25.35312 | -145.33090 | 33112 ft | 483 kts | 63° |
| 2026-05-06 17:44 | 25.38180 | -145.26386 | 33111 ft | 483 kts | 63° |
| 2026-05-06 17:45 | 25.41037 | -145.19670 | 33112 ft | 483 kts | 63° |
| 2026-05-06 17:45 | 25.43887 | -145.12950 | 33115 ft | 483 kts | 63° |
| 2026-05-06 17:46 | 25.46742 | -145.06231 | 33118 ft | 482 kts | 63° |
| 2026-05-06 17:46 | 25.49591 | -144.99507 | 33117 ft | 482 kts | 63° |
| 2026-05-06 17:47 | 25.52428 | -144.92788 | 33121 ft | 482 kts | 63° |
| 2026-05-06 17:47 | 25.55250 | -144.86111 | 33127 ft | 481 kts | 63° |
| 2026-05-06 17:48 | 25.58091 | -144.79399 | 33126 ft | 481 kts | 63° |
| 2026-05-06 17:48 | 25.60921 | -144.72686 | 33129 ft | 481 kts | 63° |
| 2026-05-06 17:49 | 25.63730 | -144.65971 | 33121 ft | 480 kts | 63° |
| 2026-05-06 17:49 | 25.66553 | -144.59259 | 33118 ft | 480 kts | 63° |
| 2026-05-06 17:50 | 25.69367 | -144.52552 | 33116 ft | 480 kts | 63° |
| 2026-05-06 17:50 | 25.72169 | -144.45845 | 33117 ft | 479 kts | 63° |
| 2026-05-06 17:51 | 25.74971 | -144.39153 | 33124 ft | 478 kts | 63° |
| 2026-05-06 17:51 | 25.77767 | -144.32459 | 33125 ft | 478 kts | 63° |
| 2026-05-06 17:52 | 25.80534 | -144.25815 | 33127 ft | 477 kts | 63° |
| 2026-05-06 17:52 | 25.83316 | -144.19132 | 33127 ft | 477 kts | 63° |
| 2026-05-06 17:53 | 25.86095 | -144.12442 | 33128 ft | 477 kts | 64° |
| 2026-05-06 17:53 | 25.88871 | -144.05758 | 33129 ft | 476 kts | 64° |
| 2026-05-06 17:54 | 25.91632 | -143.99075 | 33125 ft | 476 kts | 64° |
| 2026-05-06 17:54 | 25.94389 | -143.92405 | 33124 ft | 475 kts | 64° |
| 2026-05-06 17:55 | 25.97148 | -143.85720 | 33122 ft | 475 kts | 64° |
| 2026-05-06 17:55 | 25.99900 | -143.79044 | 33119 ft | 475 kts | 64° |
| 2026-05-06 17:56 | 26.02647 | -143.72367 | 33116 ft | 475 kts | 64° |
| 2026-05-06 17:56 | 26.05386 | -143.65685 | 33115 ft | 475 kts | 64° |
| 2026-05-06 17:57 | 26.08129 | -143.59005 | 33115 ft | 475 kts | 64° |
| 2026-05-06 17:57 | 26.10872 | -143.52307 | 33115 ft | 475 kts | 64° |
| 2026-05-06 17:58 | 26.13613 | -143.45616 | 33113 ft | 475 kts | 64° |
| 2026-05-06 17:58 | 26.16332 | -143.38957 | 33117 ft | 476 kts | 64° |
| 2026-05-06 17:59 | 26.19065 | -143.32256 | 33120 ft | 475 kts | 64° |
| 2026-05-06 17:59 | 26.21792 | -143.25548 | 33122 ft | 476 kts | 64° |
| 2026-05-06 18:00 | 26.24514 | -143.18838 | 33121 ft | 474 kts | 64° |
| 2026-05-06 18:00 | 26.27225 | -143.12140 | 33119 ft | 475 kts | 64° |
| 2026-05-06 18:01 | 26.29936 | -143.05429 | 33119 ft | 475 kts | 64° |
| 2026-05-06 18:01 | 26.32645 | -142.98721 | 33115 ft | 475 kts | 64° |
| 2026-05-06 18:02 | 26.35344 | -142.92055 | 33117 ft | 475 kts | 64° |
| 2026-05-06 18:02 | 26.38048 | -142.85333 | 33119 ft | 475 kts | 64° |
| 2026-05-06 18:03 | 26.40751 | -142.78611 | 33120 ft | 475 kts | 64° |
| 2026-05-06 18:03 | 26.43460 | -142.71892 | 33117 ft | 475 kts | 64° |
| 2026-05-06 18:04 | 26.46156 | -142.65163 | 33117 ft | 475 kts | 64° |
| 2026-05-06 18:04 | 26.48842 | -142.58424 | 33119 ft | 475 kts | 64° |
| 2026-05-06 18:05 | 26.51529 | -142.51693 | 33124 ft | 475 kts | 64° |
| 2026-05-06 18:05 | 26.54219 | -142.44959 | 33128 ft | 475 kts | 64° |
| 2026-05-06 18:06 | 26.56902 | -142.38222 | 33128 ft | 475 kts | 64° |
| 2026-05-06 18:06 | 26.59585 | -142.31480 | 33122 ft | 475 kts | 64° |
| 2026-05-06 18:07 | 26.62269 | -142.24741 | 33122 ft | 475 kts | 64° |
| 2026-05-06 18:07 | 26.64945 | -142.17989 | 33127 ft | 475 kts | 64° |
| 2026-05-06 18:08 | 26.67619 | -142.11242 | 33130 ft | 475 kts | 64° |
| 2026-05-06 18:08 | 26.70284 | -142.04483 | 33132 ft | 475 kts | 64° |
| 2026-05-06 18:09 | 26.72943 | -141.97729 | 33129 ft | 475 kts | 64° |
| 2026-05-06 18:09 | 26.75586 | -141.91013 | 33130 ft | 474 kts | 64° |
| 2026-05-06 18:10 | 26.78240 | -141.84258 | 33129 ft | 475 kts | 64° |
| 2026-05-06 18:10 | 26.80900 | -141.77492 | 33130 ft | 475 kts | 64° |
| 2026-05-06 18:11 | 26.83122 | -141.71818 | 33129 ft | 475 kts | 64° |
| 2026-05-06 18:11 | 26.86204 | -141.63942 | 33132 ft | 475 kts | 64° |
| 2026-05-06 18:12 | 26.88848 | -141.57172 | 33134 ft | 474 kts | 64° |
| 2026-05-06 18:12 | 26.91481 | -141.50403 | 33136 ft | 474 kts | 64° |
| 2026-05-06 18:13 | 26.94116 | -141.43623 | 33134 ft | 474 kts | 64° |
| 2026-05-06 18:13 | 26.96750 | -141.36852 | 33134 ft | 474 kts | 64° |
| 2026-05-06 18:14 | 26.99381 | -141.30073 | 33134 ft | 474 kts | 65° |
| 2026-05-06 18:14 | 27.02001 | -141.23287 | 33128 ft | 474 kts | 64° |
| 2026-05-06 18:15 | 27.04185 | -141.17643 | 33128 ft | 475 kts | 64° |
| 2026-05-06 18:15 | 27.07239 | -141.09749 | 33130 ft | 475 kts | 64° |
| 2026-05-06 18:16 | 27.09854 | -141.02953 | 33131 ft | 475 kts | 65° |
| 2026-05-06 18:16 | 27.12468 | -140.96144 | 33133 ft | 475 kts | 65° |
| 2026-05-06 18:17 | 27.14660 | -140.90437 | 33136 ft | 475 kts | 65° |
| 2026-05-06 18:17 | 27.17270 | -140.83628 | 33136 ft | 475 kts | 65° |
| 2026-05-06 18:18 | 27.19883 | -140.76813 | 33136 ft | 475 kts | 65° |
| 2026-05-06 18:18 | 27.22481 | -140.69996 | 33140 ft | 474 kts | 65° |
| 2026-05-06 18:19 | 27.25075 | -140.63180 | 33142 ft | 474 kts | 65° |
| 2026-05-06 18:19 | 27.27670 | -140.56364 | 33141 ft | 474 kts | 65° |
| 2026-05-06 18:20 | 27.30240 | -140.49598 | 33143 ft | 474 kts | 65° |
| 2026-05-06 18:20 | 27.32826 | -140.42781 | 33145 ft | 474 kts | 65° |
| 2026-05-06 18:21 | 27.35405 | -140.35967 | 33139 ft | 474 kts | 65° |
| 2026-05-06 18:21 | 27.37985 | -140.29147 | 33132 ft | 473 kts | 65° |
| 2026-05-06 18:22 | 27.40564 | -140.22334 | 33129 ft | 473 kts | 65° |
| 2026-05-06 18:22 | 27.43133 | -140.15514 | 33125 ft | 473 kts | 65° |
| 2026-05-06 18:23 | 27.45700 | -140.08696 | 33123 ft | 473 kts | 65° |
| 2026-05-06 18:23 | 27.48262 | -140.01871 | 33120 ft | 473 kts | 65° |
| 2026-05-06 18:24 | 27.50815 | -139.95050 | 33118 ft | 473 kts | 65° |
| 2026-05-06 18:24 | 27.53363 | -139.88230 | 33116 ft | 473 kts | 65° |
| 2026-05-06 18:25 | 27.55895 | -139.81442 | 33116 ft | 473 kts | 65° |
| 2026-05-06 18:25 | 27.58443 | -139.74608 | 33122 ft | 473 kts | 65° |
| 2026-05-06 18:26 | 27.60985 | -139.67768 | 33125 ft | 473 kts | 65° |
| 2026-05-06 18:26 | 27.63528 | -139.60928 | 33126 ft | 473 kts | 65° |
| 2026-05-06 18:27 | 27.66062 | -139.54076 | 33133 ft | 473 kts | 65° |
| 2026-05-06 18:27 | 27.68591 | -139.47231 | 33136 ft | 473 kts | 65° |
| 2026-05-06 18:28 | 27.71132 | -139.40379 | 33135 ft | 473 kts | 65° |
| 2026-05-06 18:28 | 27.73659 | -139.33515 | 33138 ft | 474 kts | 65° |
| 2026-05-06 18:29 | 27.76189 | -139.26642 | 33145 ft | 475 kts | 66° |
| 2026-05-06 18:29 | 27.78718 | -139.19755 | 33149 ft | 474 kts | 66° |
| 2026-05-06 18:30 | 27.81237 | -139.12868 | 33152 ft | 474 kts | 66° |
| 2026-05-06 18:30 | 27.83763 | -139.05988 | 33166 ft | 474 kts | 66° |
| 2026-05-06 18:31 | 27.86277 | -138.99111 | 33150 ft | 474 kts | 66° |
| 2026-05-06 18:31 | 27.88786 | -138.92223 | 33151 ft | 474 kts | 66° |
| 2026-05-06 18:32 | 27.91298 | -138.85330 | 33150 ft | 474 kts | 66° |
| 2026-05-06 18:32 | 27.93810 | -138.78434 | 33169 ft | 474 kts | 66° |
| 2026-05-06 18:33 | 27.96307 | -138.71529 | 33151 ft | 474 kts | 66° |
| 2026-05-06 18:33 | 27.98801 | -138.64628 | 33156 ft | 474 kts | 66° |
| 2026-05-06 18:34 | 28.01287 | -138.57723 | 33164 ft | 473 kts | 66° |
| 2026-05-06 18:34 | 28.03752 | -138.50875 | 33153 ft | 473 kts | 66° |
| 2026-05-06 18:35 | 28.06236 | -138.43981 | 33153 ft | 473 kts | 66° |
| 2026-05-06 18:35 | 28.08722 | -138.37076 | 33151 ft | 473 kts | 66° |
| 2026-05-06 18:36 | 28.11199 | -138.30168 | 33152 ft | 474 kts | 66° |
| 2026-05-06 18:36 | 28.13670 | -138.23249 | 33158 ft | 473 kts | 66° |
| 2026-05-06 18:37 | 28.16140 | -138.16329 | 33149 ft | 473 kts | 66° |
| 2026-05-06 18:37 | 28.18602 | -138.09414 | 33150 ft | 473 kts | 66° |
| 2026-05-06 18:38 | 28.21066 | -138.02498 | 33152 ft | 473 kts | 66° |
| 2026-05-06 18:38 | 28.23521 | -137.95575 | 33151 ft | 473 kts | 66° |
| 2026-05-06 18:39 | 28.25973 | -137.88639 | 33167 ft | 473 kts | 66° |
| 2026-05-06 18:40 | 28.29657 | -137.78250 | 33158 ft | 473 kts | 66° |
| 2026-05-06 18:40 | 28.32105 | -137.71313 | 33162 ft | 474 kts | 66° |
| 2026-05-06 18:41 | 28.34526 | -137.64419 | 33162 ft | 473 kts | 66° |
| 2026-05-06 18:41 | 28.36954 | -137.57476 | 33152 ft | 473 kts | 66° |
| 2026-05-06 18:42 | 28.39387 | -137.50537 | 33171 ft | 473 kts | 66° |
| 2026-05-06 18:42 | 28.41823 | -137.43603 | 33152 ft | 473 kts | 66° |
| 2026-05-06 18:43 | 28.44254 | -137.36657 | 33154 ft | 473 kts | 66° |
| 2026-05-06 18:43 | 28.46672 | -137.29716 | 33162 ft | 472 kts | 66° |
| 2026-05-06 18:44 | 28.49086 | -137.22772 | 33165 ft | 472 kts | 67° |
| 2026-05-06 18:44 | 28.51493 | -137.15836 | 33170 ft | 472 kts | 67° |
| 2026-05-06 18:45 | 28.53882 | -137.08940 | 33151 ft | 471 kts | 67° |
| 2026-05-06 18:45 | 28.56280 | -137.02013 | 33149 ft | 471 kts | 67° |
| 2026-05-06 18:46 | 28.58686 | -136.95072 | 33161 ft | 471 kts | 67° |
| 2026-05-06 18:46 | 28.61080 | -136.88130 | 33162 ft | 471 kts | 67° |
| 2026-05-06 18:47 | 28.63468 | -136.81177 | 33167 ft | 471 kts | 67° |
| 2026-05-06 18:47 | 28.65849 | -136.74225 | 33159 ft | 471 kts | 67° |
| 2026-05-06 18:48 | 28.68229 | -136.67277 | 33161 ft | 471 kts | 67° |
| 2026-05-06 18:48 | 28.70605 | -136.60320 | 33164 ft | 471 kts | 67° |
| 2026-05-06 18:49 | 28.72980 | -136.53364 | 33149 ft | 471 kts | 67° |
| 2026-05-06 18:49 | 28.75352 | -136.46416 | 33150 ft | 471 kts | 67° |
| 2026-05-06 18:50 | 28.77711 | -136.39501 | 33150 ft | 471 kts | 67° |
| 2026-05-06 18:50 | 28.80079 | -136.32536 | 33151 ft | 471 kts | 67° |
| 2026-05-06 18:51 | 28.82435 | -136.25565 | 33158 ft | 471 kts | 67° |
| 2026-05-06 18:51 | 28.84787 | -136.18587 | 33152 ft | 471 kts | 67° |
| 2026-05-06 18:52 | 28.87139 | -136.11610 | 33159 ft | 471 kts | 67° |
| 2026-05-06 18:52 | 28.89490 | -136.04634 | 33161 ft | 471 kts | 67° |
| 2026-05-06 18:53 | 28.91835 | -135.97656 | 33158 ft | 471 kts | 67° |
| 2026-05-06 18:53 | 28.94170 | -135.90685 | 33157 ft | 470 kts | 67° |
| 2026-05-06 18:54 | 28.96510 | -135.83707 | 33168 ft | 470 kts | 67° |
| 2026-05-06 18:54 | 28.98840 | -135.76739 | 33169 ft | 470 kts | 67° |
| 2026-05-06 18:55 | 29.01167 | -135.69770 | 33162 ft | 469 kts | 67° |
| 2026-05-06 18:55 | 29.03482 | -135.62795 | 33169 ft | 469 kts | 67° |
| 2026-05-06 18:56 | 29.05791 | -135.55832 | 33163 ft | 469 kts | 67° |
| 2026-05-06 18:56 | 29.08094 | -135.48864 | 33163 ft | 468 kts | 67° |
| 2026-05-06 18:57 | 29.10396 | -135.41908 | 33156 ft | 468 kts | 67° |
| 2026-05-06 18:57 | 29.12684 | -135.34998 | 33167 ft | 467 kts | 67° |
| 2026-05-06 18:58 | 29.14973 | -135.28038 | 33164 ft | 468 kts | 67° |
| 2026-05-06 18:58 | 29.17257 | -135.21068 | 33169 ft | 467 kts | 67° |
| 2026-05-06 18:59 | 29.19545 | -135.14107 | 33170 ft | 467 kts | 67° |
| 2026-05-06 18:59 | 29.21833 | -135.07143 | 33170 ft | 467 kts | 67° |
| 2026-05-06 19:00 | 29.24112 | -135.00173 | 33160 ft | 467 kts | 67° |
| 2026-05-06 19:00 | 29.26375 | -134.93211 | 33170 ft | 467 kts | 67° |
| 2026-05-06 19:01 | 29.28642 | -134.86246 | 33173 ft | 467 kts | 67° |
| 2026-05-06 19:01 | 29.30907 | -134.79278 | 33171 ft | 466 kts | 67° |
| 2026-05-06 19:02 | 29.33170 | -134.72311 | 33170 ft | 466 kts | 67° |
| 2026-05-06 19:02 | 29.35422 | -134.65344 | 33164 ft | 466 kts | 67° |
| 2026-05-06 19:03 | 29.37664 | -134.58378 | 33171 ft | 466 kts | 67° |
| 2026-05-06 19:03 | 29.39901 | -134.51401 | 33169 ft | 466 kts | 67° |
| 2026-05-06 19:04 | 29.42139 | -134.44433 | 33176 ft | 466 kts | 67° |
| 2026-05-06 19:04 | 29.44381 | -134.37458 | 33178 ft | 465 kts | 67° |
| 2026-05-06 19:05 | 29.46614 | -134.30497 | 33180 ft | 465 kts | 67° |
| 2026-05-06 19:05 | 29.48844 | -134.23529 | 33180 ft | 465 kts | 67° |
| 2026-05-06 19:06 | 29.51072 | -134.16562 | 33171 ft | 465 kts | 67° |
| 2026-05-06 19:06 | 29.52908 | -134.10768 | 33176 ft | 465 kts | 67° |
| 2026-05-06 19:07 | 29.55120 | -134.03803 | 33176 ft | 464 kts | 67° |
| 2026-05-06 19:07 | 29.57687 | -133.95699 | 33176 ft | 464 kts | 67° |
| 2026-05-06 19:08 | 29.59887 | -133.88740 | 33178 ft | 464 kts | 67° |
| 2026-05-06 19:08 | 29.61733 | -133.82905 | 33177 ft | 464 kts | 67° |
| 2026-05-06 19:09 | 29.63932 | -133.75931 | 33166 ft | 464 kts | 67° |
| 2026-05-06 19:09 | 29.66114 | -133.68958 | 33164 ft | 464 kts | 67° |
| 2026-05-06 19:10 | 29.68298 | -133.61985 | 33176 ft | 463 kts | 67° |
| 2026-05-06 19:10 | 29.70478 | -133.55013 | 33157 ft | 464 kts | 67° |
| 2026-05-06 19:11 | 29.72654 | -133.48077 | 33169 ft | 464 kts | 66° |
| 2026-05-06 19:11 | 29.74832 | -133.41092 | 33169 ft | 464 kts | 67° |
| 2026-05-06 19:12 | 29.77008 | -133.34097 | 33166 ft | 464 kts | 66° |
| 2026-05-06 19:12 | 29.79183 | -133.27103 | 33168 ft | 464 kts | 67° |
| 2026-05-06 19:13 | 29.81347 | -133.20099 | 33163 ft | 464 kts | 67° |
| 2026-05-06 19:13 | 29.83505 | -133.13092 | 33177 ft | 464 kts | 66° |
| 2026-05-06 19:14 | 29.85663 | -133.06085 | 33171 ft | 464 kts | 66° |
| 2026-05-06 19:14 | 29.87829 | -132.99081 | 33182 ft | 464 kts | 66° |
| 2026-05-06 19:15 | 29.89965 | -132.92120 | 33185 ft | 463 kts | 66° |
| 2026-05-06 19:15 | 29.92107 | -132.85123 | 33183 ft | 463 kts | 66° |
| 2026-05-06 19:16 | 29.94246 | -132.78121 | 33182 ft | 463 kts | 66° |
| 2026-05-06 19:16 | 29.96376 | -132.71118 | 33185 ft | 463 kts | 66° |
| 2026-05-06 19:17 | 29.98500 | -132.64113 | 33185 ft | 462 kts | 66° |
| 2026-05-06 19:17 | 30.00631 | -132.57125 | 33184 ft | 462 kts | 66° |
| 2026-05-06 19:18 | 30.02758 | -132.50130 | 33183 ft | 461 kts | 66° |
| 2026-05-06 19:18 | 30.04865 | -132.43141 | 33184 ft | 461 kts | 66° |
| 2026-05-06 19:19 | 30.06972 | -132.36150 | 33187 ft | 461 kts | 66° |
| 2026-05-06 19:19 | 30.09080 | -132.29173 | 33191 ft | 460 kts | 66° |
| 2026-05-06 19:20 | 30.11183 | -132.22199 | 33179 ft | 460 kts | 66° |
| 2026-05-06 19:20 | 30.13269 | -132.15209 | 33177 ft | 460 kts | 66° |
| 2026-05-06 19:21 | 30.15353 | -132.08218 | 33179 ft | 460 kts | 66° |
| 2026-05-06 19:21 | 30.17436 | -132.01227 | 33181 ft | 460 kts | 66° |
| 2026-05-06 19:22 | 30.19510 | -131.94287 | 33166 ft | 460 kts | 66° |
| 2026-05-06 19:22 | 30.21609 | -131.87260 | 33173 ft | 460 kts | 66° |
| 2026-05-06 19:23 | 30.23672 | -131.80309 | 33166 ft | 460 kts | 66° |
| 2026-05-06 19:23 | 30.25732 | -131.73308 | 33161 ft | 460 kts | 66° |
| 2026-05-06 19:24 | 30.27792 | -131.66305 | 33167 ft | 459 kts | 66° |
| 2026-05-06 19:24 | 30.29853 | -131.59312 | 33163 ft | 459 kts | 67° |
| 2026-05-06 19:25 | 30.31912 | -131.52327 | 33176 ft | 459 kts | 67° |
| 2026-05-06 19:25 | 30.33957 | -131.45343 | 33182 ft | 458 kts | 67° |
| 2026-05-06 19:26 | 30.35998 | -131.38360 | 33180 ft | 457 kts | 67° |
| 2026-05-06 19:26 | 30.38034 | -131.31379 | 33189 ft | 457 kts | 68° |
| 2026-05-06 19:27 | 30.40059 | -131.24410 | 33189 ft | 457 kts | 68° |
| 2026-05-06 19:27 | 30.42079 | -131.17444 | 33190 ft | 456 kts | 68° |
| 2026-05-06 19:28 | 30.44101 | -131.10491 | 33192 ft | 455 kts | 68° |
| 2026-05-06 19:28 | 30.46113 | -131.03544 | 33196 ft | 454 kts | 68° |
| 2026-05-06 19:29 | 30.48113 | -130.96596 | 33197 ft | 454 kts | 69° |
| 2026-05-06 19:29 | 30.50104 | -130.89658 | 33193 ft | 453 kts | 69° |
| 2026-05-06 19:30 | 30.52097 | -130.82737 | 33190 ft | 452 kts | 69° |
| 2026-05-06 19:30 | 30.54072 | -130.75864 | 33192 ft | 452 kts | 69° |
| 2026-05-06 19:31 | 30.56039 | -130.68947 | 33194 ft | 451 kts | 69° |
| 2026-05-06 19:31 | 30.58987 | -130.58592 | 33195 ft | 450 kts | 69° |
| 2026-05-06 19:32 | 30.60952 | -130.51700 | 33181 ft | 449 kts | 69° |
| 2026-05-06 19:32 | 30.62906 | -130.44818 | 33178 ft | 449 kts | 69° |
| 2026-05-06 19:33 | 30.64858 | -130.37929 | 33183 ft | 449 kts | 69° |
| 2026-05-06 19:33 | 30.66798 | -130.31047 | 33182 ft | 448 kts | 70° |
| 2026-05-06 19:34 | 30.68732 | -130.24173 | 33177 ft | 448 kts | 70° |
| 2026-05-06 19:34 | 30.70669 | -130.17293 | 33180 ft | 448 kts | 70° |
| 2026-05-06 19:35 | 30.72601 | -130.10421 | 33174 ft | 447 kts | 70° |
| 2026-05-06 19:35 | 30.74519 | -130.03544 | 33176 ft | 447 kts | 70° |
| 2026-05-06 19:36 | 30.76436 | -129.96665 | 33171 ft | 447 kts | 70° |
| 2026-05-06 19:36 | 30.78338 | -129.89841 | 33178 ft | 446 kts | 70° |
| 2026-05-06 19:37 | 30.80246 | -129.82984 | 33177 ft | 445 kts | 70° |
| 2026-05-06 19:37 | 30.81827 | -129.77286 | 33172 ft | 445 kts | 70° |
| 2026-05-06 19:38 | 30.84034 | -129.69278 | 33162 ft | 445 kts | 70° |
| 2026-05-06 19:38 | 30.85925 | -129.62429 | 33169 ft | 445 kts | 70° |
| 2026-05-06 19:39 | 30.87821 | -129.55583 | 33169 ft | 444 kts | 70° |
| 2026-05-06 19:39 | 30.89700 | -129.48733 | 33159 ft | 444 kts | 71° |
| 2026-05-06 19:40 | 30.91573 | -129.41873 | 33166 ft | 444 kts | 70° |
| 2026-05-06 19:40 | 30.93448 | -129.35026 | 33169 ft | 444 kts | 70° |
| 2026-05-06 19:41 | 30.95319 | -129.28173 | 33161 ft | 444 kts | 71° |
| 2026-05-06 19:41 | 30.97187 | -129.21317 | 33168 ft | 444 kts | 71° |
| 2026-05-06 19:42 | 30.99037 | -129.14514 | 33174 ft | 443 kts | 71° |
| 2026-05-06 19:42 | 31.00889 | -129.07659 | 33161 ft | 443 kts | 71° |
| 2026-05-06 19:43 | 31.02743 | -129.00809 | 33161 ft | 443 kts | 71° |
| 2026-05-06 19:43 | 31.04594 | -128.93953 | 33157 ft | 443 kts | 71° |
| 2026-05-06 19:44 | 31.06436 | -128.87097 | 33161 ft | 443 kts | 71° |
| 2026-05-06 19:44 | 31.08269 | -128.80237 | 33173 ft | 443 kts | 71° |
| 2026-05-06 19:45 | 31.10111 | -128.73385 | 33173 ft | 442 kts | 71° |
| 2026-05-06 19:45 | 31.11947 | -128.66531 | 33160 ft | 442 kts | 71° |
| 2026-05-06 19:46 | 31.13772 | -128.59673 | 33160 ft | 442 kts | 71° |
| 2026-05-06 19:46 | 31.15595 | -128.52827 | 33175 ft | 442 kts | 71° |
| 2026-05-06 19:47 | 31.17397 | -128.46018 | 33173 ft | 442 kts | 71° |
| 2026-05-06 19:47 | 31.19218 | -128.39121 | 33161 ft | 441 kts | 71° |
| 2026-05-06 19:48 | 31.21015 | -128.32324 | 33168 ft | 441 kts | 71° |
| 2026-05-06 19:48 | 31.22819 | -128.25478 | 33163 ft | 441 kts | 71° |
| 2026-05-06 19:49 | 31.24616 | -128.18632 | 33158 ft | 441 kts | 71° |
| 2026-05-06 19:49 | 31.26413 | -128.11778 | 33156 ft | 441 kts | 71° |
| 2026-05-06 19:50 | 31.28199 | -128.04928 | 33165 ft | 441 kts | 71° |
| 2026-05-06 19:50 | 31.29984 | -127.98073 | 33161 ft | 441 kts | 71° |
| 2026-05-06 19:51 | 31.31766 | -127.91223 | 33175 ft | 440 kts | 71° |
| 2026-05-06 19:51 | 31.33547 | -127.84375 | 33160 ft | 440 kts | 71° |
| 2026-05-06 19:52 | 31.35320 | -127.77538 | 33174 ft | 439 kts | 71° |
| 2026-05-06 19:52 | 31.37077 | -127.70738 | 33163 ft | 439 kts | 71° |
| 2026-05-06 19:53 | 31.38840 | -127.63890 | 33156 ft | 439 kts | 71° |
| 2026-05-06 19:53 | 31.40596 | -127.57047 | 33154 ft | 439 kts | 71° |
| 2026-05-06 19:54 | 31.42354 | -127.50202 | 33152 ft | 439 kts | 71° |
| 2026-05-06 19:54 | 31.44110 | -127.43348 | 33164 ft | 439 kts | 71° |
| 2026-05-06 19:55 | 31.45862 | -127.36486 | 33163 ft | 440 kts | 71° |
| 2026-05-06 19:55 | 31.47606 | -127.29622 | 33161 ft | 440 kts | 72° |
| 2026-05-06 19:56 | 31.49346 | -127.22760 | 33167 ft | 439 kts | 71° |
| 2026-05-06 19:56 | 31.51073 | -127.15944 | 33151 ft | 439 kts | 71° |
| 2026-05-06 19:57 | 31.52806 | -127.09086 | 33149 ft | 438 kts | 72° |
| 2026-05-06 19:57 | 31.54535 | -127.02235 | 33143 ft | 438 kts | 71° |
| 2026-05-06 19:58 | 31.56256 | -126.95381 | 33142 ft | 438 kts | 72° |
| 2026-05-06 19:58 | 31.57973 | -126.88521 | 33142 ft | 438 kts | 72° |
| 2026-05-06 19:59 | 31.59691 | -126.81651 | 33145 ft | 438 kts | 72° |
| 2026-05-06 19:59 | 31.61402 | -126.74792 | 33145 ft | 438 kts | 71° |
| 2026-05-06 20:00 | 31.63114 | -126.67932 | 33145 ft | 438 kts | 72° |
| 2026-05-06 20:00 | 31.64531 | -126.62229 | 33145 ft | 438 kts | 72° |
| 2026-05-06 20:01 | 31.66234 | -126.55364 | 33144 ft | 438 kts | 72° |
| 2026-05-06 20:01 | 31.67930 | -126.48498 | 33145 ft | 438 kts | 72° |
| 2026-05-06 20:02 | 31.69623 | -126.41632 | 33143 ft | 438 kts | 72° |
| 2026-05-06 20:02 | 31.71314 | -126.34762 | 33147 ft | 438 kts | 72° |
| 2026-05-06 20:03 | 31.72998 | -126.27899 | 33146 ft | 437 kts | 72° |
| 2026-05-06 20:03 | 31.74676 | -126.21020 | 33143 ft | 438 kts | 72° |
| 2026-05-06 20:04 | 31.76351 | -126.14151 | 33143 ft | 438 kts | 72° |
| 2026-05-06 20:04 | 31.78011 | -126.07313 | 33143 ft | 437 kts | 72° |
| 2026-05-06 20:05 | 31.79683 | -126.00442 | 33141 ft | 437 kts | 72° |
| 2026-05-06 20:05 | 31.81355 | -125.93565 | 33141 ft | 437 kts | 72° |
| 2026-05-06 20:06 | 31.83016 | -125.86693 | 33141 ft | 437 kts | 72° |
| 2026-05-06 20:06 | 31.84671 | -125.79811 | 33141 ft | 437 kts | 72° |
| 2026-05-06 20:07 | 31.86320 | -125.72933 | 33140 ft | 437 kts | 72° |
| 2026-05-06 20:07 | 31.87969 | -125.66043 | 33139 ft | 438 kts | 72° |
| 2026-05-06 20:08 | 31.89620 | -125.59152 | 33140 ft | 437 kts | 72° |
| 2026-05-06 20:08 | 31.91262 | -125.52257 | 33141 ft | 437 kts | 72° |
| 2026-05-06 20:09 | 31.92904 | -125.45360 | 33146 ft | 437 kts | 72° |
| 2026-05-06 20:09 | 31.94533 | -125.38468 | 33147 ft | 437 kts | 72° |
| 2026-05-06 20:10 | 31.96158 | -125.31568 | 33149 ft | 437 kts | 72° |
| 2026-05-06 20:10 | 31.97786 | -125.24676 | 33148 ft | 437 kts | 72° |
| 2026-05-06 20:11 | 31.99407 | -125.17825 | 33146 ft | 437 kts | 72° |
| 2026-05-06 20:11 | 32.01020 | -125.10925 | 33143 ft | 437 kts | 72° |
| 2026-05-06 20:12 | 32.02636 | -125.04033 | 33141 ft | 436 kts | 72° |
| 2026-05-06 20:12 | 32.04244 | -124.97141 | 33140 ft | 436 kts | 72° |
| 2026-05-06 20:13 | 32.05850 | -124.90257 | 33137 ft | 435 kts | 72° |
| 2026-05-06 20:13 | 32.07444 | -124.83370 | 33135 ft | 435 kts | 72° |
| 2026-05-06 20:14 | 32.09025 | -124.76488 | 33133 ft | 435 kts | 72° |
| 2026-05-06 20:14 | 32.10617 | -124.69608 | 33133 ft | 435 kts | 72° |
| 2026-05-06 20:15 | 32.12212 | -124.62724 | 33134 ft | 435 kts | 72° |
| 2026-05-06 20:15 | 32.13789 | -124.55881 | 33136 ft | 435 kts | 72° |
| 2026-05-06 20:16 | 32.15363 | -124.48992 | 33136 ft | 435 kts | 72° |
| 2026-05-06 20:16 | 32.16928 | -124.42101 | 33134 ft | 435 kts | 72° |
| 2026-05-06 20:17 | 32.18499 | -124.35214 | 33138 ft | 435 kts | 72° |
| 2026-05-06 20:17 | 32.20070 | -124.28312 | 33145 ft | 435 kts | 72° |
| 2026-05-06 20:18 | 32.21627 | -124.21420 | 33147 ft | 434 kts | 72° |
| 2026-05-06 20:18 | 32.23182 | -124.14523 | 33151 ft | 435 kts | 72° |
| 2026-05-06 20:19 | 32.24728 | -124.07622 | 33154 ft | 435 kts | 72° |
| 2026-05-06 20:19 | 32.26196 | -124.00689 | 33153 ft | 435 kts | 73° |
| 2026-05-06 20:20 | 32.27615 | -123.93750 | 33147 ft | 435 kts | 73° |
| 2026-05-06 20:20 | 32.29047 | -123.86804 | 33149 ft | 435 kts | 73° |
| 2026-05-06 20:21 | 32.30467 | -123.79911 | 33149 ft | 435 kts | 73° |
| 2026-05-06 20:21 | 32.31897 | -123.72970 | 33165 ft | 435 kts | 73° |
| 2026-05-06 20:22 | 32.33327 | -123.66027 | 33167 ft | 435 kts | 73° |
| 2026-05-06 20:22 | 32.34743 | -123.59080 | 33159 ft | 434 kts | 73° |
| 2026-05-06 20:23 | 32.36160 | -123.52144 | 33157 ft | 434 kts | 73° |
| 2026-05-06 20:23 | 32.37582 | -123.45198 | 33152 ft | 434 kts | 73° |
| 2026-05-06 20:24 | 32.38995 | -123.38261 | 33165 ft | 434 kts | 73° |
| 2026-05-06 20:24 | 32.40403 | -123.31327 | 33161 ft | 433 kts | 73° |
| 2026-05-06 20:25 | 32.41798 | -123.24388 | 33174 ft | 433 kts | 73° |
| 2026-05-06 20:25 | 32.43193 | -123.17463 | 33177 ft | 433 kts | 73° |
| 2026-05-06 20:26 | 32.44594 | -123.10539 | 33170 ft | 432 kts | 73° |
| 2026-05-06 20:26 | 32.45963 | -123.03673 | 33171 ft | 431 kts | 73° |
| 2026-05-06 20:27 | 32.47371 | -122.96768 | 33156 ft | 430 kts | 72° |
| 2026-05-06 20:27 | 32.48957 | -122.89947 | 33155 ft | 429 kts | 71° |
| 2026-05-06 20:28 | 32.50589 | -122.83151 | 33152 ft | 429 kts | 71° |
| 2026-05-06 20:28 | 32.52189 | -122.76339 | 33151 ft | 429 kts | 71° |
| 2026-05-06 20:29 | 32.53750 | -122.69528 | 33163 ft | 429 kts | 72° |
| 2026-05-06 20:29 | 32.55298 | -122.62703 | 33152 ft | 428 kts | 71° |
| 2026-05-06 20:30 | 32.57629 | -122.52499 | 33152 ft | 427 kts | 71° |
| 2026-05-06 20:31 | 32.59183 | -122.45692 | 33164 ft | 427 kts | 71° |
| 2026-05-06 20:31 | 32.60734 | -122.38901 | 33166 ft | 427 kts | 71° |
| 2026-05-06 20:32 | 32.62276 | -122.32108 | 33153 ft | 426 kts | 71° |
| 2026-05-06 20:32 | 32.63800 | -122.25317 | 33151 ft | 426 kts | 71° |
| 2026-05-06 20:33 | 32.65325 | -122.18516 | 33171 ft | 426 kts | 71° |
| 2026-05-06 20:33 | 32.66849 | -122.11729 | 33158 ft | 426 kts | 71° |
| 2026-05-06 20:34 | 32.68586 | -122.05031 | 33151 ft | 422 kts | 63° |
| 2026-05-06 20:34 | 32.71490 | -121.99089 | 33150 ft | 419 kts | 56° |
| 2026-05-06 20:35 | 32.74568 | -121.93217 | 33168 ft | 418 kts | 56° |
| 2026-05-06 20:35 | 32.77622 | -121.87353 | 33162 ft | 417 kts | 56° |
| 2026-05-06 20:36 | 32.80668 | -121.81494 | 33171 ft | 417 kts | 56° |
| 2026-05-06 20:36 | 32.83711 | -121.75628 | 33159 ft | 416 kts | 56° |
| 2026-05-06 20:37 | 32.86743 | -121.69769 | 33164 ft | 416 kts | 56° |
| 2026-05-06 20:37 | 32.89774 | -121.63914 | 33173 ft | 415 kts | 56° |
| 2026-05-06 20:38 | 32.92795 | -121.58068 | 33169 ft | 415 kts | 56° |
| 2026-05-06 20:38 | 32.95815 | -121.52213 | 33151 ft | 415 kts | 56° |
| 2026-05-06 20:39 | 32.98831 | -121.46366 | 33152 ft | 414 kts | 56° |
| 2026-05-06 20:39 | 33.01824 | -121.40554 | 33147 ft | 414 kts | 56° |
| 2026-05-06 20:40 | 33.04831 | -121.34695 | 33152 ft | 414 kts | 56° |
| 2026-05-06 20:40 | 33.07828 | -121.28835 | 33152 ft | 414 kts | 56° |
| 2026-05-06 20:41 | 33.10822 | -121.22981 | 33152 ft | 413 kts | 56° |
| 2026-05-06 20:41 | 33.13820 | -121.17127 | 33160 ft | 413 kts | 56° |
| 2026-05-06 20:42 | 33.16810 | -121.11274 | 33153 ft | 413 kts | 56° |
| 2026-05-06 20:42 | 33.19791 | -121.05420 | 33158 ft | 413 kts | 56° |
| 2026-05-06 20:43 | 33.22772 | -120.99572 | 33167 ft | 412 kts | 56° |
| 2026-05-06 20:43 | 33.25747 | -120.93722 | 33167 ft | 412 kts | 56° |
| 2026-05-06 20:44 | 33.28710 | -120.87861 | 33167 ft | 412 kts | 57° |
| 2026-05-06 20:44 | 33.31677 | -120.82006 | 33159 ft | 411 kts | 56° |
| 2026-05-06 20:45 | 33.34617 | -120.76197 | 33159 ft | 411 kts | 57° |